createdAt,value
2018-04-17T00:01:14.007Z,13.10
2018-04-17T00:03:42.367Z,13.77
2018-04-17T00:06:10.984Z,13.60
2018-04-17T00:08:39.350Z,12.13
2018-04-17T00:11:07.980Z,14.23
2018-04-17T00:13:36.417Z,13.90
2018-04-17T00:16:04.886Z,13.70
2018-04-17T00:18:33.476Z,12.93
2018-04-17T00:21:01.833Z,13.73
2018-04-17T00:23:30.314Z,12.23
2018-04-17T00:25:58.781Z,12.30
2018-04-17T00:28:27.417Z,11.67
2018-04-17T00:30:56.195Z,11.80
2018-04-17T00:33:24.819Z,12.03
2018-04-17T00:35:53.204Z,11.67
2018-04-17T00:38:21.600Z,11.87
2018-04-17T00:40:50.193Z,13.27
2018-04-17T00:43:18.629Z,13.83
2018-04-17T00:45:47.031Z,14.07
2018-04-17T00:48:15.408Z,11.93
2018-04-17T00:50:43.773Z,13.97
2018-04-17T00:53:24.027Z,13.73
2018-04-17T00:55:52.387Z,12.27
2018-04-17T00:58:20.752Z,12.57
2018-04-17T01:00:49.412Z,13.63
2018-04-17T01:03:17.837Z,10.80
2018-04-17T01:05:46.219Z,13.03
2018-04-17T01:08:14.701Z,12.33
2018-04-17T01:10:43.159Z,13.30
2018-04-17T01:13:11.916Z,13.47
2018-04-17T01:15:40.507Z,14.17
2018-04-17T01:18:08.871Z,12.03
2018-04-17T01:20:37.282Z,12.47
2018-04-17T01:23:05.693Z,14.87
2018-04-17T01:25:34.169Z,11.63
2018-04-17T01:28:02.744Z,12.63
2018-04-17T01:30:31.408Z,12.33
2018-04-17T01:32:59.763Z,12.80
2018-04-17T01:35:28.229Z,14.00
2018-04-17T01:37:56.613Z,13.27
2018-04-17T01:40:24.969Z,14.60
2018-04-17T01:42:53.327Z,13.50
2018-04-17T01:45:22.300Z,15.63
2018-04-17T01:47:50.806Z,15.23
2018-04-17T01:52:53.887Z,14.07
2018-04-17T01:55:22.352Z,14.77
2018-04-17T01:57:50.755Z,14.13
2018-04-17T02:00:19.201Z,16.30
2018-04-17T02:02:47.713Z,12.93
2018-04-17T02:05:16.073Z,16.03
2018-04-17T02:07:44.439Z,15.97
2018-04-17T02:10:12.960Z,14.37
2018-04-17T02:12:41.317Z,16.13
2018-04-17T02:15:09.676Z,16.60
2018-04-17T02:17:38.032Z,15.93
2018-04-17T02:20:06.525Z,12.87
2018-04-17T02:22:34.951Z,13.70
2018-04-17T02:25:03.311Z,14.70
2018-04-17T02:27:31.693Z,14.50
2018-04-17T02:30:00.048Z,11.30
2018-04-17T02:32:28.588Z,15.77
2018-04-17T02:34:56.998Z,13.27
2018-04-17T02:37:25.363Z,12.00
2018-04-17T02:39:53.724Z,14.50
2018-04-17T02:42:22.335Z,15.00
2018-04-17T02:44:51.679Z,12.20
2018-04-17T02:47:20.071Z,13.63
2018-04-17T02:49:48.428Z,15.60
2018-04-17T02:52:16.985Z,13.37
2018-04-17T02:54:45.521Z,14.70
2018-04-17T02:57:14.150Z,15.57
2018-04-17T02:59:42.923Z,14.27
2018-04-17T03:02:11.286Z,12.57
2018-04-17T03:04:39.704Z,12.50
2018-04-17T03:07:08.412Z,12.07
2018-04-17T03:09:37.039Z,15.03
2018-04-17T03:12:05.452Z,14.40
2018-04-17T03:14:33.808Z,12.77
2018-04-17T03:17:02.339Z,11.83
2018-04-17T03:19:30.958Z,13.70
2018-04-17T03:21:59.389Z,14.97
2018-04-17T03:24:27.966Z,16.73
2018-04-17T03:26:56.604Z,14.50
2018-04-17T03:29:25.129Z,16.30
2018-04-17T03:31:53.518Z,16.07
2018-04-17T03:34:21.877Z,15.73
2018-04-17T03:36:50.239Z,17.03
2018-04-17T03:39:18.662Z,15.13
2018-04-17T03:41:47.209Z,16.43
2018-04-17T03:44:15.714Z,16.00
2018-04-17T03:46:44.378Z,16.37
2018-04-17T03:49:12.840Z,17.80
2018-04-17T03:51:41.582Z,15.60
2018-04-17T03:54:09.945Z,16.83
2018-04-17T03:56:38.431Z,19.00
2018-04-17T03:59:07.063Z,20.50
2018-04-17T04:01:35.623Z,21.17
2018-04-17T04:04:03.997Z,21.80
2018-04-17T04:06:32.847Z,24.23
2018-04-17T04:09:01.283Z,24.47
2018-04-17T04:11:29.637Z,22.13
2018-04-17T04:13:58.112Z,19.83
2018-04-17T04:16:38.522Z,18.80
2018-04-17T04:19:18.669Z,17.73
2018-04-17T04:21:59.377Z,19.10
2018-04-17T04:24:39.800Z,17.43
2018-04-17T04:27:08.204Z,18.47
2018-04-17T04:29:36.807Z,17.67
2018-04-17T04:32:05.333Z,16.27
2018-04-17T04:34:33.820Z,16.00
2018-04-17T04:37:02.437Z,17.37
2018-04-17T04:39:31.203Z,14.23
2018-04-17T04:41:59.597Z,17.37
2018-04-17T04:44:27.963Z,16.27
2018-04-17T04:46:56.335Z,16.50
2018-04-17T04:49:24.769Z,17.37
2018-04-17T04:51:53.120Z,15.27
2018-04-17T04:54:21.566Z,13.53
2018-04-17T04:56:50.090Z,14.80
2018-04-17T04:59:18.519Z,16.53
2018-04-17T05:01:46.884Z,18.57
2018-04-17T05:04:15.265Z,16.03
2018-04-17T05:06:43.872Z,15.63
2018-04-17T05:09:12.626Z,15.93
2018-04-17T05:11:40.989Z,18.37
2018-04-17T05:14:09.432Z,16.30
2018-04-17T05:16:37.899Z,16.50
2018-04-17T05:19:06.386Z,17.00
2018-04-17T05:21:34.777Z,14.77
2018-04-17T05:24:03.273Z,15.10
2018-04-17T05:26:31.628Z,15.13
2018-04-17T05:29:00.047Z,13.57
2018-04-17T05:31:29.071Z,12.37
2018-04-17T05:33:57.438Z,12.47
2018-04-17T05:36:25.803Z,15.13
2018-04-17T05:38:54.604Z,13.73
2018-04-17T05:41:23.200Z,13.67
2018-04-17T05:43:51.753Z,13.07
2018-04-17T05:46:20.247Z,13.63
2018-04-17T05:48:48.610Z,12.57
2018-04-17T05:51:16.999Z,13.77
2018-04-17T05:53:45.366Z,14.03
2018-04-17T05:56:14.234Z,12.77
2018-04-17T05:58:42.636Z,13.80
2018-04-17T06:01:11.103Z,13.00
2018-04-17T06:03:39.573Z,13.50
2018-04-17T06:06:07.931Z,12.80
2018-04-17T06:08:36.548Z,10.33
2018-04-17T06:11:04.907Z,11.03
2018-04-17T06:13:33.730Z,10.43
2018-04-17T06:16:02.088Z,10.20
2018-04-17T06:18:30.774Z,10.00
2018-04-17T06:20:59.139Z,10.00
2018-04-17T06:23:27.872Z,9.43
2018-04-17T06:25:56.379Z,9.77
2018-04-17T06:28:24.765Z,9.33
2018-04-17T06:30:53.272Z,9.23
2018-04-17T06:33:21.761Z,9.67
2018-04-17T06:35:50.165Z,9.60
2018-04-17T06:38:19.284Z,8.80
2018-04-17T06:40:47.739Z,8.60
2018-04-17T06:43:16.482Z,8.47
2018-04-17T06:45:44.974Z,8.43
2018-04-17T06:48:13.341Z,8.80
2018-04-17T06:50:42.990Z,9.87
2018-04-17T06:53:11.466Z,9.70
2018-04-17T06:55:40.105Z,9.27
2018-04-17T06:58:08.664Z,8.93
2018-04-17T07:00:37.248Z,8.03
2018-04-17T07:03:05.737Z,8.63
2018-04-17T07:05:34.360Z,9.47
2018-04-17T07:08:03.299Z,10.03
2018-04-17T07:10:31.864Z,9.73
2018-04-17T07:13:00.558Z,10.13
2018-04-17T07:15:29.040Z,10.33
2018-04-17T07:17:57.565Z,13.47
2018-04-17T07:20:26.346Z,13.63
2018-04-17T07:22:54.760Z,13.83
2018-04-17T07:25:23.121Z,12.40
2018-04-17T07:27:51.499Z,11.60
2018-04-17T07:30:19.872Z,15.43
2018-04-17T07:32:49.030Z,14.43
2018-04-17T07:35:17.481Z,10.23
2018-04-17T07:37:46.507Z,9.63
2018-04-17T07:40:16.215Z,9.07
2018-04-17T07:42:44.606Z,10.73
2018-04-17T07:45:13.329Z,10.37
2018-04-17T07:50:42.817Z,10.17
2018-04-17T07:53:11.717Z,9.63
2018-04-17T07:55:40.380Z,10.87
2018-04-17T07:58:08.976Z,10.53
2018-04-17T08:00:37.332Z,9.77
2018-04-17T08:03:05.843Z,10.27
2018-04-17T08:05:34.321Z,10.93
2018-04-17T08:08:03.701Z,10.13
2018-04-17T08:10:32.521Z,9.90
2018-04-17T08:13:00.980Z,11.47
2018-04-17T08:15:29.496Z,13.73
2018-04-17T08:17:58.204Z,10.03
2018-04-17T08:20:27.035Z,10.37
2018-04-17T08:22:56.353Z,9.60
2018-04-17T08:25:24.978Z,6.47
2018-04-17T08:27:53.337Z,8.87
2018-04-17T08:30:22.055Z,8.53
2018-04-17T08:32:51.007Z,8.90
2018-04-17T08:35:20.335Z,9.57
2018-04-17T08:37:48.875Z,9.40
2018-04-17T08:40:17.899Z,9.27
2018-04-17T08:42:46.588Z,8.47
2018-04-17T08:45:15.087Z,9.77
2018-04-17T08:47:43.533Z,9.57
2018-04-17T08:50:11.932Z,9.20
2018-04-17T08:52:40.283Z,8.93
2018-04-17T08:55:08.782Z,8.80
2018-04-17T08:57:37.268Z,8.70
2018-04-17T09:00:05.692Z,8.73
2018-04-17T09:02:34.323Z,13.90
2018-04-17T09:05:02.941Z,8.47
2018-04-17T09:07:31.525Z,7.33
2018-04-17T09:10:00.014Z,6.97
2018-04-17T09:12:28.370Z,7.80
2018-04-17T09:14:56.731Z,6.07
2018-04-17T09:17:25.111Z,6.60
2018-04-17T09:19:53.698Z,7.10
2018-04-17T09:22:22.491Z,7.40
2018-04-17T09:24:51.416Z,7.23
2018-04-17T09:27:19.920Z,6.87
2018-04-17T09:29:48.422Z,6.37
2018-04-17T09:32:16.813Z,6.47
2018-04-17T09:34:45.629Z,5.83
2018-04-17T09:37:14.001Z,6.10
2018-04-17T09:39:42.887Z,6.30
2018-04-17T09:42:11.335Z,6.80
2018-04-17T09:44:39.948Z,6.27
2018-04-17T09:47:09.355Z,8.97
2018-04-17T09:49:37.724Z,28.43
2018-04-17T09:52:06.169Z,6.10
2018-04-17T09:54:34.632Z,5.83
2018-04-17T09:57:04.179Z,5.97
2018-04-17T09:59:32.741Z,6.07
2018-04-17T10:02:01.399Z,6.27
2018-04-17T10:04:29.980Z,6.30
2018-04-17T10:06:58.514Z,5.93
2018-04-17T10:09:26.929Z,6.53
2018-04-17T10:11:55.322Z,6.10
2018-04-17T10:14:23.763Z,5.47
2018-04-17T10:16:52.623Z,6.33
2018-04-17T10:19:21.216Z,7.40
2018-04-17T10:21:49.891Z,7.10
2018-04-17T10:24:18.251Z,6.57
2018-04-17T10:26:47.207Z,6.80
2018-04-17T10:29:16.954Z,6.27
2018-04-17T10:31:45.614Z,6.60
2018-04-17T10:34:14.164Z,7.87
2018-04-17T10:36:42.523Z,7.43
2018-04-17T10:39:10.951Z,7.47
2018-04-17T10:41:39.305Z,6.43
2018-04-17T10:44:07.783Z,6.70
2018-04-17T11:53:14.319Z,7.80
2018-04-17T11:55:42.676Z,4.47
2018-04-17T11:58:11.141Z,3.80
2018-04-17T12:03:43.781Z,4.13
2018-04-17T12:06:12.516Z,3.77
2018-04-17T12:08:41.122Z,4.30
2018-04-17T12:11:10.371Z,3.50
2018-04-17T12:13:38.836Z,3.50
2018-04-17T12:16:07.545Z,3.50
2018-04-17T12:18:36.092Z,3.50
2018-04-17T12:21:05.891Z,3.33
2018-04-17T12:23:34.327Z,4.87
2018-04-17T12:26:02.839Z,9.80
2018-04-17T12:28:31.277Z,7.87
2018-04-17T12:31:00.059Z,3.53
2018-04-17T12:33:28.605Z,3.50
2018-04-17T12:35:57.867Z,3.17
2018-04-17T12:38:26.242Z,3.07
2018-04-17T12:40:55.079Z,7.90
2018-04-17T12:43:28.188Z,2.97
2018-04-17T12:45:57.823Z,3.13
2018-04-17T12:48:30.793Z,3.50
2018-04-17T12:50:59.544Z,3.00
2018-04-17T12:53:29.019Z,3.10
2018-04-17T12:56:01.947Z,3.20
2018-04-17T12:58:33.246Z,3.60
2018-04-17T13:01:02.511Z,3.30
2018-04-17T13:03:31.292Z,3.17
2018-04-17T13:06:00.065Z,3.00
2018-04-17T13:08:30.461Z,3.10
2018-04-17T13:10:59.850Z,3.23
2018-04-17T13:13:33.431Z,3.10
2018-04-17T13:16:05.079Z,2.90
2018-04-17T13:18:38.469Z,3.27
2018-04-17T13:21:08.823Z,3.20
2018-04-17T13:23:37.505Z,3.17
2018-04-17T13:26:06.233Z,3.40
2018-04-17T13:28:34.761Z,3.73
2018-04-17T13:31:03.599Z,3.47
2018-04-17T13:33:32.085Z,3.50
2018-04-17T13:36:01.539Z,3.43
2018-04-17T13:38:30.786Z,3.60
2018-04-17T13:40:59.617Z,2.83
2018-04-17T13:43:28.669Z,3.13
2018-04-17T13:45:57.191Z,3.07
2018-04-17T13:48:26.910Z,2.90
2018-04-17T13:50:55.561Z,2.97
2018-04-17T13:53:24.565Z,3.20
2018-04-17T13:55:53.724Z,3.13
2018-04-17T13:58:22.936Z,3.10
2018-04-17T14:00:51.704Z,3.23
2018-04-17T14:03:20.113Z,3.00
2018-04-17T14:05:48.848Z,2.37
2018-04-17T14:08:17.883Z,2.70
2018-04-17T14:10:47.265Z,2.63
2018-04-17T14:13:16.819Z,3.10
2018-04-17T14:15:46.070Z,2.67
2018-04-17T14:18:15.322Z,2.87
2018-04-17T14:20:44.349Z,3.10
2018-04-17T14:23:12.742Z,2.33
2018-04-17T14:25:42.237Z,3.07
2018-04-17T14:28:10.814Z,2.90
2018-04-17T14:30:39.806Z,2.27
2018-04-17T14:33:32.082Z,2.90
2018-04-17T14:36:03.016Z,4.93
2018-04-17T14:38:31.835Z,5.20
2018-04-17T14:41:00.550Z,4.87
2018-04-17T14:43:32.223Z,5.90
2018-04-17T14:46:03.983Z,7.40
2018-04-17T14:51:19.347Z,9.77
2018-04-17T14:53:48.616Z,9.70
2018-04-17T14:56:17.406Z,9.63
2018-04-17T14:58:47.153Z,10.03
2018-04-17T15:01:15.577Z,10.40
2018-04-17T15:03:44.546Z,12.53
2018-04-17T15:06:13.319Z,15.70
2018-04-17T15:08:41.955Z,15.57
2018-04-17T15:11:10.606Z,16.57
2018-04-17T15:13:39.645Z,22.93
2018-04-17T15:16:08.609Z,23.20
2018-04-17T15:18:37.211Z,22.70
2018-04-17T15:21:06.178Z,26.07
2018-04-17T15:23:34.992Z,22.17
2018-04-17T15:26:03.525Z,16.93
2018-04-17T15:28:32.634Z,20.73
2018-04-17T15:31:01.000Z,21.27
2018-04-17T15:33:29.395Z,23.03
2018-04-17T15:35:59.167Z,19.73
2018-04-17T15:38:27.940Z,20.13
2018-04-17T15:40:56.376Z,18.93
2018-04-17T15:43:24.751Z,20.83
2018-04-17T15:45:53.508Z,17.30
2018-04-17T15:48:21.885Z,21.03
2018-04-17T15:50:50.693Z,19.67
2018-04-17T15:53:19.044Z,11.77
2018-04-17T15:55:47.508Z,17.17
2018-04-17T15:58:15.903Z,17.50
2018-04-17T16:00:45.391Z,19.03
2018-04-17T16:03:14.436Z,19.93
2018-04-17T16:05:42.808Z,18.33
2018-04-17T16:08:11.277Z,16.63
2018-04-17T16:10:40.097Z,15.07
2018-04-17T16:13:08.856Z,19.40
2018-04-17T16:15:37.599Z,15.83
2018-04-17T16:18:07.047Z,10.97
2018-04-17T16:20:35.796Z,14.10
2018-04-17T16:23:04.174Z,7.67
2018-04-17T16:25:33.516Z,7.30
2018-04-17T16:28:02.936Z,9.60
2018-04-17T16:30:32.095Z,9.23
2018-04-17T16:33:01.402Z,7.60
2018-04-17T16:35:30.489Z,7.67
2018-04-17T16:37:59.269Z,6.97
2018-04-17T16:40:28.059Z,5.97
2018-04-17T16:42:58.355Z,6.63
2018-04-17T16:45:26.845Z,7.33
2018-04-17T16:47:55.848Z,7.50
2018-04-17T16:50:24.329Z,7.37
2018-04-17T16:52:52.721Z,5.70
2018-04-17T16:55:21.751Z,5.73
2018-04-17T16:57:51.001Z,7.50
2018-04-17T17:00:19.380Z,6.10
2018-04-17T17:02:47.799Z,4.60
2018-04-17T17:05:16.170Z,4.53
2018-04-17T17:07:44.959Z,4.70
2018-04-17T17:10:13.407Z,4.60
2018-04-17T17:12:41.789Z,4.20
2018-04-17T17:15:13.732Z,4.17
2018-04-17T17:17:42.153Z,4.00
2018-04-17T17:20:11.239Z,4.20
2018-04-17T17:22:39.686Z,4.00
2018-04-17T17:25:08.469Z,7.60
2018-04-17T17:27:36.850Z,5.43
2018-04-17T17:30:05.844Z,3.93
2018-04-17T17:32:34.282Z,4.53
2018-04-17T17:35:03.898Z,9.20
2018-04-17T17:37:36.668Z,3.50
2018-04-17T17:40:14.940Z,4.23
2018-04-17T17:42:43.530Z,4.40
2018-04-17T17:45:11.935Z,3.37
2018-04-17T17:47:40.759Z,2.93
2018-04-17T17:50:09.232Z,3.67
2018-04-17T17:52:38.320Z,4.50
2018-04-17T17:55:07.058Z,3.70
2018-04-17T17:57:35.810Z,3.90
2018-04-17T18:00:04.643Z,5.80
2018-04-17T18:02:33.028Z,3.93
2018-04-17T18:05:01.413Z,3.23
2018-04-17T18:07:29.947Z,4.50
2018-04-17T18:09:58.910Z,12.60
2018-04-17T18:12:27.658Z,3.90
2018-04-17T18:14:56.043Z,3.00
2018-04-17T18:17:24.771Z,3.43
2018-04-17T18:19:53.175Z,3.40
2018-04-17T18:22:21.549Z,3.57
2018-04-17T18:24:49.918Z,3.53
2018-04-17T18:27:18.370Z,4.00
2018-04-17T18:29:46.876Z,3.63
2018-04-17T18:32:15.277Z,5.20
2018-04-17T18:34:45.308Z,6.90
2018-04-17T18:37:16.822Z,7.30
2018-04-17T18:39:47.393Z,4.33
2018-04-17T18:42:16.431Z,8.47
2018-04-17T18:44:45.118Z,7.60
2018-04-17T18:47:13.528Z,5.77
2018-04-17T18:49:41.917Z,5.50
2018-04-17T18:52:10.864Z,9.07
2018-04-17T18:54:39.619Z,5.97
2018-04-17T18:57:08.029Z,9.73
2018-04-17T18:59:36.891Z,6.53
2018-04-17T19:02:05.413Z,6.23
2018-04-17T19:04:33.845Z,9.43
2018-04-17T19:07:02.677Z,12.60
2018-04-17T19:09:31.915Z,11.17
2018-04-17T19:12:00.292Z,14.33
2018-04-17T19:14:28.918Z,9.97
2018-04-17T19:16:59.037Z,9.57
2018-04-17T19:19:27.929Z,8.47
2018-04-17T19:24:29.759Z,4.43
2018-04-17T19:26:58.328Z,4.10
2018-04-17T19:29:30.414Z,3.63
2018-04-17T19:32:00.545Z,5.03
2018-04-17T19:34:29.398Z,4.20
2018-04-17T19:36:58.045Z,3.80
2018-04-17T19:39:26.441Z,3.87
2018-04-17T19:41:54.811Z,4.20
2018-04-17T19:44:23.180Z,4.33
2018-04-17T19:46:51.942Z,4.43
2018-04-17T19:49:20.340Z,4.07
2018-04-17T19:51:49.397Z,4.40
2018-04-17T19:54:20.031Z,4.13
2018-04-17T19:56:50.508Z,7.03
2018-04-17T19:59:18.899Z,16.40
2018-04-17T20:01:47.704Z,7.17
2018-04-17T20:04:16.535Z,5.20
2018-04-17T20:06:44.900Z,8.60
2018-04-17T20:09:13.976Z,7.40
2018-04-17T20:11:43.179Z,8.10
2018-04-17T20:14:13.735Z,8.07
2018-04-17T20:16:42.191Z,8.23
2018-04-17T20:19:10.837Z,7.73
2018-04-17T20:21:39.490Z,8.03
2018-04-17T20:24:08.168Z,7.90
2018-04-17T20:26:37.019Z,9.17
2018-04-17T20:29:06.508Z,8.80
2018-04-17T20:31:37.081Z,7.63
2018-04-17T20:34:05.461Z,7.90
2018-04-17T20:36:34.453Z,7.40
2018-04-17T20:39:03.034Z,9.33
2018-04-17T20:41:31.904Z,8.67
2018-04-17T20:44:00.923Z,8.10
2018-04-17T20:46:31.038Z,8.80
2018-04-17T20:49:00.405Z,9.47
2018-04-17T20:51:29.705Z,8.87
2018-04-17T20:53:58.131Z,8.70
2018-04-17T20:56:26.568Z,9.50
2018-04-17T20:58:55.463Z,8.47
2018-04-17T21:01:24.299Z,9.57
2018-04-17T21:03:52.934Z,8.90
2018-04-17T21:06:21.733Z,9.13
2018-04-17T21:08:50.103Z,9.63
2018-04-17T21:11:19.565Z,9.60
2018-04-17T21:13:48.308Z,9.33
2018-04-17T21:16:19.417Z,9.23
2018-04-17T21:18:48.085Z,9.50
2018-04-17T21:21:16.563Z,7.97
2018-04-17T21:23:44.920Z,9.57
2018-04-17T21:26:13.279Z,9.23
2018-04-17T21:28:42.094Z,9.70
2018-04-17T21:31:10.477Z,9.13
2018-04-17T21:33:39.118Z,8.73
2018-04-17T21:36:07.807Z,7.40
2018-04-17T21:38:36.253Z,8.90
2018-04-17T21:41:04.881Z,9.87
2018-04-17T21:43:33.250Z,9.53
2018-04-17T21:46:01.613Z,9.27
2018-04-17T21:48:29.973Z,9.73
2018-04-17T21:50:58.655Z,9.67
2018-04-17T21:53:27.048Z,7.87
2018-04-17T21:55:55.456Z,9.30
2018-04-17T21:58:24.141Z,9.13
2018-04-17T22:00:52.504Z,8.10
2018-04-17T22:03:21.288Z,9.30
2018-04-17T22:05:49.643Z,10.10
2018-04-17T22:08:18.135Z,9.70
2018-04-17T22:10:46.501Z,9.33
2018-04-17T22:13:14.866Z,10.13
2018-04-17T22:15:43.225Z,9.40
2018-04-17T22:18:11.620Z,9.80
2018-04-17T22:20:40.007Z,10.23
2018-04-17T22:23:08.366Z,9.00
2018-04-17T22:25:36.743Z,9.20
2018-04-17T22:28:05.105Z,10.00
2018-04-17T22:30:33.471Z,9.27
2018-04-17T22:33:02.207Z,10.97
2018-04-17T22:35:32.259Z,11.13
2018-04-17T22:38:01.271Z,10.53
2018-04-17T22:40:35.100Z,9.77
2018-04-17T22:43:03.904Z,10.23
2018-04-17T22:45:33.481Z,9.80
2018-04-17T22:48:01.833Z,8.37
2018-04-17T22:50:35.687Z,10.87
2018-04-17T22:53:04.049Z,9.33
2018-04-17T22:55:32.414Z,9.73
2018-04-17T22:58:00.767Z,9.43
2018-04-17T23:00:29.129Z,9.40
2018-04-17T23:02:57.485Z,9.53
2018-04-17T23:05:31.244Z,10.60
2018-04-17T23:07:59.741Z,9.73
2018-04-17T23:10:28.311Z,9.73
2018-04-17T23:12:56.671Z,9.93
2018-04-17T23:15:25.036Z,10.73
2018-04-17T23:17:53.795Z,10.00
2018-04-17T23:20:22.154Z,10.70
2018-04-17T23:22:50.514Z,10.03
2018-04-17T23:25:18.867Z,10.70
2018-04-17T23:27:47.367Z,11.67
2018-04-17T23:30:17.376Z,12.00
2018-04-17T23:32:46.052Z,11.33
2018-04-17T23:35:14.481Z,10.70
2018-04-17T23:37:42.989Z,10.53
2018-04-17T23:40:11.347Z,10.43
2018-04-17T23:42:39.751Z,10.53
2018-04-17T23:45:08.105Z,10.67
2018-04-17T23:47:36.513Z,8.03
2018-04-17T23:50:05.302Z,10.20
2018-04-17T23:52:33.664Z,9.67
2018-04-17T23:55:02.203Z,9.17
2018-04-17T23:57:31.057Z,9.67
2018-04-17T23:59:59.540Z,10.20
